createdAt,value
2024-01-16T00:00:19.716Z,94090.00
2024-01-16T00:01:19.798Z,94091.00
2024-01-16T00:02:19.802Z,94094.00
2024-01-16T00:03:19.806Z,94093.00
2024-01-16T00:04:19.893Z,94090.00
2024-01-16T00:05:19.888Z,94089.00
2024-01-16T00:06:19.907Z,94091.00
2024-01-16T00:07:19.954Z,94091.00
2024-01-16T00:08:20.001Z,94094.00
2024-01-16T00:09:20.040Z,94096.00
2024-01-16T00:10:20.031Z,94098.00
2024-01-16T00:11:20.113Z,94101.00
2024-01-16T00:12:20.068Z,94100.00
2024-01-16T00:13:20.110Z,94096.00
2024-01-16T00:14:20.171Z,94090.00
2024-01-16T00:15:20.223Z,94090.00
2024-01-16T00:16:20.239Z,94090.00
2024-01-16T00:17:20.316Z,94093.00
2024-01-16T00:18:20.523Z,94095.00
2024-01-16T00:19:20.477Z,94095.00
2024-01-16T00:20:20.420Z,94097.00
2024-01-16T00:21:20.410Z,94095.00
2024-01-16T00:22:20.412Z,94100.00
2024-01-16T00:23:20.467Z,94104.00
2024-01-16T00:24:20.524Z,94106.00
2024-01-16T00:25:20.578Z,94110.00
2024-01-16T00:26:20.584Z,94110.00
2024-01-16T00:27:20.582Z,94108.00
2024-01-16T00:28:20.614Z,94101.00
2024-01-16T00:29:20.985Z,94100.00
2024-01-16T00:30:20.711Z,94101.00
2024-01-16T00:31:20.721Z,94102.00
2024-01-16T00:32:20.846Z,94106.00
2024-01-16T00:33:20.956Z,94109.00
2024-01-16T00:34:20.876Z,94110.00
2024-01-16T00:35:20.933Z,94114.00
2024-01-16T00:36:20.934Z,94114.00
2024-01-16T00:37:20.960Z,94115.00
2024-01-16T00:38:21.026Z,94115.00
2024-01-16T00:39:21.005Z,94113.00
2024-01-16T00:40:21.067Z,94115.00
2024-01-16T00:41:21.140Z,94115.00
2024-01-16T00:42:21.145Z,94116.00
2024-01-16T00:43:21.174Z,94119.00
2024-01-16T00:44:21.266Z,94119.00
2024-01-16T00:45:21.248Z,94121.00
2024-01-16T00:46:21.304Z,94123.00
2024-01-16T00:47:21.405Z,94124.00
2024-01-16T00:48:21.450Z,94126.00
2024-01-16T00:49:22.166Z,94126.00
2024-01-16T00:50:21.488Z,94121.00
2024-01-16T00:51:21.523Z,94119.00
2024-01-16T00:52:21.521Z,94117.00
2024-01-16T00:53:21.570Z,94118.00
2024-01-16T00:54:21.618Z,94119.00
2024-01-16T00:55:21.631Z,94119.00
2024-01-16T00:56:21.724Z,94124.00
2024-01-16T00:57:21.743Z,94125.00
2024-01-16T00:58:21.750Z,94129.00
2024-01-16T00:59:21.824Z,94132.00
2024-01-16T01:00:21.849Z,94135.00
2024-01-16T01:01:21.914Z,94135.00
2024-01-16T01:02:21.969Z,94138.00
2024-01-16T01:03:22.030Z,94140.00
2024-01-16T01:04:22.955Z,94141.00
2024-01-16T01:05:22.106Z,94143.00
2024-01-16T01:06:22.197Z,94143.00
2024-01-16T01:07:22.151Z,94143.00
2024-01-16T01:08:22.219Z,94140.00
2024-01-16T01:09:22.239Z,94140.00
2024-01-16T01:10:22.253Z,94142.00
2024-01-16T01:11:22.267Z,94144.00
2024-01-16T01:12:22.287Z,94147.00
2024-01-16T01:13:22.361Z,94152.00
2024-01-16T01:14:22.577Z,94155.00
2024-01-16T01:15:22.473Z,94156.00
2024-01-16T01:16:22.433Z,94156.00
2024-01-16T01:17:22.551Z,94156.00
2024-01-16T01:18:22.658Z,94155.00
2024-01-16T01:19:22.574Z,94155.00
2024-01-16T01:20:22.637Z,94155.00
2024-01-16T01:21:22.622Z,94158.00
2024-01-16T01:22:22.620Z,94158.00
2024-01-16T01:23:22.724Z,94160.00
2024-01-16T01:24:22.747Z,94157.00
2024-01-16T01:25:22.803Z,94157.00
2024-01-16T01:26:22.857Z,94158.00
2024-01-16T01:27:22.811Z,94158.00
2024-01-16T01:28:22.861Z,94160.00
2024-01-16T01:29:23.022Z,94162.00
2024-01-16T01:30:22.953Z,94163.00
2024-01-16T01:31:23.006Z,94162.00
2024-01-16T01:32:23.182Z,94163.00
2024-01-16T01:33:23.183Z,94158.00
2024-01-16T01:34:23.172Z,94159.00
2024-01-16T01:35:23.206Z,94160.00
2024-01-16T01:36:23.227Z,94162.00
2024-01-16T01:37:23.225Z,94163.00
2024-01-16T01:38:23.320Z,94163.00
2024-01-16T01:39:23.468Z,94164.00
2024-01-16T01:40:23.349Z,94165.00
2024-01-16T01:41:23.427Z,94169.00
2024-01-16T01:42:23.482Z,94169.00
2024-01-16T01:43:23.469Z,94165.00
2024-01-16T01:44:23.480Z,94166.00
2024-01-16T01:45:23.557Z,94166.00
2024-01-16T01:46:23.589Z,94164.00
2024-01-16T01:47:23.668Z,94168.00
2024-01-16T01:48:23.704Z,94170.00
2024-01-16T01:49:23.800Z,94174.00
2024-01-16T01:50:23.815Z,94177.00
2024-01-16T01:51:23.826Z,94180.00
2024-01-16T01:52:23.828Z,94181.00
2024-01-16T01:53:24.001Z,94182.00
2024-01-16T01:54:23.978Z,94181.00
2024-01-16T01:55:23.952Z,94183.00
2024-01-16T01:56:24.059Z,94183.00
2024-01-16T01:57:24.036Z,94187.00
2024-01-16T01:58:24.079Z,94187.00
2024-01-16T01:59:24.146Z,94189.00
2024-01-16T02:00:24.197Z,94189.00
2024-01-16T02:01:24.199Z,94188.00
2024-01-16T02:02:24.273Z,94190.00
2024-01-16T02:03:24.324Z,94191.00
2024-01-16T02:04:24.477Z,94190.00
2024-01-16T02:05:24.413Z,94194.00
2024-01-16T02:06:24.447Z,94196.00
2024-01-16T02:07:24.432Z,94201.00
2024-01-16T02:08:24.488Z,94199.00
2024-01-16T02:09:24.545Z,94198.00
2024-01-16T02:10:24.559Z,94200.00
2024-01-16T02:11:24.667Z,94199.00
2024-01-16T02:12:25.910Z,94204.00
2024-01-16T02:13:24.821Z,94204.00
2024-01-16T02:14:24.759Z,94204.00
2024-01-16T02:15:24.753Z,94204.00
2024-01-16T02:16:24.805Z,94203.00
2024-01-16T02:17:24.918Z,94205.00
2024-01-16T02:18:24.934Z,94205.00
2024-01-16T02:19:24.948Z,94203.00
2024-01-16T02:20:24.978Z,94204.00
2024-01-16T02:21:24.987Z,94206.00
2024-01-16T02:22:25.024Z,94209.00
2024-01-16T02:23:25.128Z,94208.00
2024-01-16T02:24:25.174Z,94207.00
2024-01-16T02:25:25.177Z,94207.00
2024-01-16T02:26:25.231Z,94210.00
2024-01-16T02:27:25.208Z,94209.00
2024-01-16T02:28:25.263Z,94210.00
2024-01-16T02:29:25.358Z,94209.00
2024-01-16T02:30:25.355Z,94207.00
2024-01-16T02:31:25.463Z,94207.00
2024-01-16T02:32:25.494Z,94208.00
2024-01-16T02:33:25.572Z,94212.00
2024-01-16T02:34:26.008Z,94212.00
2024-01-16T02:35:25.596Z,94212.00
2024-01-16T02:36:25.600Z,94215.00
2024-01-16T02:37:25.709Z,94216.00
2024-01-16T02:38:25.797Z,94216.00
2024-01-16T02:39:25.745Z,94215.00
2024-01-16T02:40:25.871Z,94213.00
2024-01-16T02:41:25.845Z,94212.00
2024-01-16T02:42:25.837Z,94211.00
2024-01-16T02:43:25.891Z,94212.00
2024-01-16T02:44:25.965Z,94214.00
2024-01-16T02:45:26.028Z,94213.00
2024-01-16T02:46:26.023Z,94214.00
2024-01-16T02:47:26.137Z,94214.00
2024-01-16T02:48:26.134Z,94218.00
2024-01-16T02:49:26.182Z,94221.00
2024-01-16T02:50:26.272Z,94223.00
2024-01-16T02:51:26.293Z,94224.00
2024-01-16T02:52:26.296Z,94223.00
2024-01-16T02:53:26.373Z,94222.00
2024-01-16T02:54:26.389Z,94218.00
2024-01-16T02:55:26.432Z,94220.00
2024-01-16T02:56:26.527Z,94221.00
2024-01-16T02:57:26.518Z,94222.00
2024-01-16T02:58:26.551Z,94224.00
2024-01-16T02:59:27.002Z,94223.00
2024-01-16T03:00:26.679Z,94225.00
2024-01-16T03:01:26.686Z,94228.00
2024-01-16T03:02:26.799Z,94231.00
2024-01-16T03:03:26.832Z,94233.00
2024-01-16T03:04:26.868Z,94233.00
2024-01-16T03:05:26.938Z,94236.00
2024-01-16T03:06:27.147Z,94236.00
2024-01-16T03:07:26.996Z,94239.00
2024-01-16T03:08:27.047Z,94243.00
2024-01-16T03:09:27.512Z,94242.00
2024-01-16T03:10:27.120Z,94244.00
2024-01-16T03:11:27.217Z,94243.00
2024-01-16T03:12:27.246Z,94244.00
2024-01-16T03:13:27.250Z,94242.00
2024-01-16T03:14:27.341Z,94244.00
2024-01-16T03:15:27.372Z,94248.00
2024-01-16T03:16:27.441Z,94245.00
2024-01-16T03:17:27.551Z,94245.00
2024-01-16T03:18:27.641Z,94244.00
2024-01-16T03:19:27.662Z,94244.00
2024-01-16T03:20:27.643Z,94242.00
2024-01-16T03:21:27.656Z,94244.00
2024-01-16T03:22:27.679Z,94242.00
2024-01-16T03:23:27.752Z,94241.00
2024-01-16T03:24:27.789Z,94244.00
2024-01-16T03:25:27.804Z,94245.00
2024-01-16T03:26:27.918Z,94248.00
2024-01-16T03:27:27.946Z,94250.00
2024-01-16T03:28:27.982Z,94251.00
2024-01-16T03:29:28.079Z,94251.00
2024-01-16T03:30:28.244Z,94251.00
2024-01-16T03:31:28.106Z,94249.00
2024-01-16T03:32:28.245Z,94248.00
2024-01-16T03:33:28.282Z,94248.00
2024-01-16T03:34:28.317Z,94246.00
2024-01-16T03:35:28.351Z,94244.00
2024-01-16T03:36:28.316Z,94241.00
2024-01-16T03:37:28.392Z,94239.00
2024-01-16T03:38:28.472Z,94241.00
2024-01-16T03:39:28.508Z,94242.00
2024-01-16T03:40:28.487Z,94244.00
2024-01-16T03:41:28.571Z,94246.00
2024-01-16T03:42:28.602Z,94244.00
2024-01-16T03:43:28.623Z,94245.00
2024-01-16T03:44:29.226Z,94246.00
2024-01-16T03:45:28.752Z,94244.00
2024-01-16T03:46:28.801Z,94243.00
2024-01-16T03:47:28.845Z,94243.00
2024-01-16T03:48:28.976Z,94244.00
2024-01-16T03:49:29.020Z,94246.00
2024-01-16T03:50:29.011Z,94246.00
2024-01-16T03:51:28.995Z,94247.00
2024-01-16T03:52:29.008Z,94248.00
2024-01-16T03:53:29.127Z,94250.00
2024-01-16T03:54:29.163Z,94249.00
2024-01-16T03:55:29.162Z,94250.00
2024-01-16T03:56:29.282Z,94249.00
2024-01-16T03:57:29.269Z,94251.00
2024-01-16T03:58:29.258Z,94250.00
2024-01-16T03:59:29.427Z,94249.00
2024-01-16T04:00:29.436Z,94249.00
2024-01-16T04:01:29.413Z,94250.00
2024-01-16T04:02:29.488Z,94251.00
2024-01-16T04:03:29.514Z,94251.00
2024-01-16T04:04:29.578Z,94250.00
2024-01-16T04:05:29.621Z,94251.00
2024-01-16T04:06:29.659Z,94253.00
2024-01-16T04:07:29.697Z,94253.00
2024-01-16T04:08:29.830Z,94255.00
2024-01-16T04:09:30.083Z,94253.00
2024-01-16T04:10:29.835Z,94252.00
2024-01-16T04:11:29.926Z,94250.00
2024-01-16T04:12:29.930Z,94250.00
2024-01-16T04:13:29.998Z,94251.00
2024-01-16T04:14:30.036Z,94252.00
2024-01-16T04:15:30.072Z,94253.00
2024-01-16T04:16:30.110Z,94252.00
2024-01-16T04:17:30.212Z,94253.00
2024-01-16T04:18:30.267Z,94254.00
2024-01-16T04:19:30.315Z,94254.00
2024-01-16T04:20:30.336Z,94253.00
2024-01-16T04:21:30.365Z,94251.00
2024-01-16T04:22:30.435Z,94252.00
2024-01-16T04:23:30.558Z,94251.00
2024-01-16T04:24:30.493Z,94251.00
2024-01-16T04:25:30.531Z,94253.00
2024-01-16T04:26:30.613Z,94255.00
2024-01-16T04:27:30.630Z,94256.00
2024-01-16T04:28:30.718Z,94255.00
2024-01-16T04:29:30.765Z,94255.00
2024-01-16T04:30:30.831Z,94259.00
2024-01-16T04:31:30.836Z,94257.00
2024-01-16T04:32:30.958Z,94259.00
2024-01-16T04:33:31.124Z,94261.00
2024-01-16T04:34:31.093Z,94265.00
2024-01-16T04:35:31.043Z,94267.00
2024-01-16T04:36:31.034Z,94265.00
2024-01-16T04:37:31.122Z,94265.00
2024-01-16T04:38:31.226Z,94265.00
2024-01-16T04:39:31.261Z,94265.00
2024-01-16T04:40:31.269Z,94266.00
2024-01-16T04:41:31.334Z,94267.00
2024-01-16T04:42:31.376Z,94266.00
2024-01-16T04:43:31.433Z,94268.00
2024-01-16T04:44:31.511Z,94269.00
2024-01-16T04:45:31.498Z,94274.00
2024-01-16T04:46:31.544Z,94275.00
2024-01-16T04:47:31.749Z,94277.00
2024-01-16T04:48:31.714Z,94278.00
2024-01-16T04:49:31.723Z,94278.00
2024-01-16T04:50:39.191Z,94282.00
2024-01-16T04:51:39.020Z,94284.00
2024-01-16T04:52:39.022Z,94283.00
2024-01-16T04:53:39.138Z,94286.00
2024-01-16T04:54:39.091Z,94288.00
2024-01-16T04:55:39.018Z,94290.00
2024-01-16T04:56:39.037Z,94294.00
2024-01-16T04:57:39.062Z,94294.00
2024-01-16T04:58:39.028Z,94297.00
2024-01-16T04:59:39.135Z,94296.00
2024-01-16T05:00:39.102Z,94295.00
2024-01-16T05:01:39.067Z,94295.00
2024-01-16T05:02:39.136Z,94293.00
2024-01-16T05:03:39.088Z,94293.00
2024-01-16T05:04:39.057Z,94293.00
2024-01-16T05:05:39.165Z,94294.00
2024-01-16T05:06:39.165Z,94298.00
2024-01-16T05:07:39.105Z,94297.00
2024-01-16T05:08:39.098Z,94298.00
2024-01-16T05:09:39.069Z,94296.00
2024-01-16T05:10:39.084Z,94296.00
2024-01-16T05:11:39.118Z,94298.00
2024-01-16T05:12:39.075Z,94297.00
2024-01-16T05:13:39.084Z,94298.00
2024-01-16T05:14:39.120Z,94297.00
2024-01-16T05:15:39.058Z,94299.00
2024-01-16T05:16:39.044Z,94299.00
2024-01-16T05:17:39.195Z,94298.00
2024-01-16T05:18:39.340Z,94296.00
2024-01-16T05:19:39.101Z,94298.00
2024-01-16T05:20:39.099Z,94297.00
2024-01-16T05:21:40.075Z,94296.00
2024-01-16T05:22:39.157Z,94296.00
2024-01-16T05:23:39.229Z,94295.00
2024-01-16T05:24:39.709Z,94295.00
2024-01-16T05:25:39.285Z,94298.00
2024-01-16T05:26:39.388Z,94302.00
2024-01-16T05:27:39.402Z,94305.00
2024-01-16T05:28:39.543Z,94304.00
2024-01-16T05:29:43.125Z,94306.00
2024-01-16T05:30:40.496Z,94306.00
2024-01-16T05:31:39.485Z,94308.00
2024-01-16T05:32:39.536Z,94306.00
2024-01-16T05:33:39.572Z,94307.00
2024-01-16T05:34:39.726Z,94311.00
2024-01-16T05:35:39.501Z,94311.00
2024-01-16T05:36:39.484Z,94310.00
2024-01-16T05:37:39.486Z,94311.00
2024-01-16T05:38:39.518Z,94309.00
2024-01-16T05:39:39.515Z,94310.00
2024-01-16T05:40:39.476Z,94311.00
2024-01-16T05:41:39.561Z,94311.00
2024-01-16T05:42:39.579Z,94311.00
2024-01-16T05:43:39.574Z,94311.00
2024-01-16T05:44:39.675Z,94308.00
2024-01-16T05:45:39.700Z,94308.00
2024-01-16T05:46:39.751Z,94307.00
2024-01-16T05:47:39.915Z,94308.00
2024-01-16T05:48:39.959Z,94309.00
2024-01-16T05:49:40.040Z,94310.00
2024-01-16T05:50:40.165Z,94309.00
2024-01-16T05:51:40.013Z,94310.00
2024-01-16T05:52:41.302Z,94310.00
2024-01-16T05:53:40.274Z,94310.00
2024-01-16T05:54:40.188Z,94311.00
2024-01-16T05:55:40.361Z,94310.00
2024-01-16T05:56:40.307Z,94311.00
2024-01-16T05:57:40.371Z,94312.00
2024-01-16T05:58:40.514Z,94310.00
2024-01-16T05:59:40.484Z,94313.00
2024-01-16T06:00:40.541Z,94312.00
2024-01-16T06:01:40.588Z,94311.00
2024-01-16T06:02:40.695Z,94310.00
2024-01-16T06:03:40.708Z,94310.00
2024-01-16T06:04:40.823Z,94311.00
2024-01-16T06:05:40.879Z,94314.00
2024-01-16T06:06:40.873Z,94314.00
2024-01-16T06:07:40.893Z,94315.00
2024-01-16T06:08:41.058Z,94315.00
2024-01-16T06:09:41.074Z,94317.00
2024-01-16T06:10:41.118Z,94322.00
2024-01-16T06:11:41.201Z,94324.00
2024-01-16T06:12:41.201Z,94323.00
2024-01-16T06:13:41.245Z,94323.00
2024-01-16T06:14:41.386Z,94324.00
2024-01-16T06:15:41.405Z,94324.00
2024-01-16T06:16:41.404Z,94323.00
2024-01-16T06:17:41.518Z,94325.00
2024-01-16T06:18:41.578Z,94324.00
2024-01-16T06:19:41.626Z,94325.00
2024-01-16T06:20:41.681Z,94324.00
2024-01-16T06:21:41.695Z,94325.00
2024-01-16T06:22:41.744Z,94320.00
2024-01-16T06:23:41.810Z,94322.00
2024-01-16T06:24:41.827Z,94319.00
2024-01-16T06:25:41.876Z,94323.00
2024-01-16T06:26:41.989Z,94327.00
2024-01-16T06:27:42.014Z,94325.00
2024-01-16T06:28:42.094Z,94324.00
2024-01-16T06:29:42.227Z,94326.00
2024-01-16T06:30:42.298Z,94327.00
2024-01-16T06:31:42.210Z,94327.00
2024-01-16T06:32:42.442Z,94327.00
2024-01-16T06:33:42.478Z,94328.00
2024-01-16T06:34:42.443Z,94331.00
2024-01-16T06:35:42.425Z,94334.00
2024-01-16T06:36:42.466Z,94332.00
2024-01-16T06:37:42.577Z,94332.00
2024-01-16T06:38:42.607Z,94333.00
2024-01-16T06:39:42.736Z,94330.00
2024-01-16T06:40:42.694Z,94330.00
2024-01-16T06:41:42.780Z,94328.00
2024-01-16T06:42:42.824Z,94330.00
2024-01-16T06:43:42.863Z,94332.00
2024-01-16T06:44:42.996Z,94334.00
2024-01-16T06:45:42.975Z,94334.00
2024-01-16T06:46:43.029Z,94333.00
2024-01-16T06:47:43.228Z,94334.00
2024-01-16T06:48:44.296Z,94336.00
2024-01-16T06:49:43.263Z,94339.00
2024-01-16T06:50:43.282Z,94340.00
2024-01-16T06:51:43.307Z,94338.00
2024-01-16T06:52:43.340Z,94339.00
2024-01-16T06:53:43.459Z,94339.00
2024-01-16T06:54:43.418Z,94337.00
2024-01-16T06:55:43.511Z,94339.00
2024-01-16T06:56:43.581Z,94335.00
2024-01-16T06:57:43.588Z,94342.00
2024-01-16T06:58:43.622Z,94337.00
2024-01-16T06:59:43.782Z,94342.00
2024-01-16T07:00:43.813Z,94339.00
2024-01-16T07:01:43.812Z,94345.00
2024-01-16T07:02:43.932Z,94342.00
2024-01-16T07:03:43.905Z,94346.00
2024-01-16T07:04:44.174Z,94346.00
2024-01-16T07:05:44.107Z,94349.00
2024-01-16T07:06:44.067Z,94350.00
2024-01-16T07:07:44.096Z,94351.00
2024-01-16T07:08:44.222Z,94352.00
2024-01-16T07:09:44.281Z,94355.00
2024-01-16T07:10:44.325Z,94356.00
2024-01-16T07:11:44.516Z,94356.00
2024-01-16T07:12:44.390Z,94358.00
2024-01-16T07:13:44.431Z,94354.00
2024-01-16T07:14:44.528Z,94356.00
2024-01-16T07:15:44.552Z,94353.00
2024-01-16T07:16:44.648Z,94354.00
2024-01-16T07:17:44.754Z,94353.00
2024-01-16T07:18:48.048Z,94355.00
2024-01-16T07:19:44.808Z,94355.00
2024-01-16T07:20:44.700Z,94353.00
2024-01-16T07:21:44.678Z,94352.00
2024-01-16T07:22:44.698Z,94354.00
2024-01-16T07:23:44.724Z,94357.00
2024-01-16T07:24:44.707Z,94356.00
2024-01-16T07:25:44.678Z,94357.00
2024-01-16T07:26:44.714Z,94357.00
2024-01-16T07:27:44.702Z,94356.00
2024-01-16T07:28:44.700Z,94357.00
2024-01-16T07:29:44.723Z,94359.00
2024-01-16T07:30:44.771Z,94361.00
2024-01-16T07:31:44.756Z,94361.00
2024-01-16T07:32:44.908Z,94366.00
2024-01-16T07:33:44.829Z,94368.00
2024-01-16T07:34:45.217Z,94368.00
2024-01-16T07:35:44.705Z,94369.00
2024-01-16T07:36:44.706Z,94373.00
2024-01-16T07:37:44.705Z,94373.00
2024-01-16T07:38:44.763Z,94379.00
2024-01-16T07:39:44.715Z,94378.00
2024-01-16T07:40:44.727Z,94378.00
2024-01-16T07:41:44.759Z,94380.00
2024-01-16T07:42:44.729Z,94383.00
2024-01-16T07:43:47.533Z,94382.00
2024-01-16T07:44:44.764Z,94381.00
2024-01-16T07:45:44.706Z,94381.00
2024-01-16T07:46:44.772Z,94383.00
2024-01-16T07:47:44.803Z,94384.00
2024-01-16T07:48:44.815Z,94384.00
2024-01-16T07:49:44.751Z,94386.00
2024-01-16T07:50:44.755Z,94387.00
2024-01-16T07:51:44.749Z,94387.00
2024-01-16T07:52:44.703Z,94390.00
2024-01-16T07:53:44.792Z,94386.00
2024-01-16T07:54:44.775Z,94387.00
2024-01-16T07:55:44.754Z,94388.00
2024-01-16T07:56:44.776Z,94385.00
2024-01-16T07:57:44.795Z,94387.00
2024-01-16T07:58:44.736Z,94387.00
2024-01-16T07:59:44.760Z,94385.00
2024-01-16T08:00:44.775Z,94389.00
2024-01-16T08:01:44.768Z,94390.00
2024-01-16T08:02:44.834Z,94389.00
2024-01-16T08:03:44.753Z,94389.00
2024-01-16T08:04:44.765Z,94388.00
2024-01-16T08:05:44.873Z,94389.00
2024-01-16T08:06:44.831Z,94390.00
2024-01-16T08:07:44.783Z,94390.00
2024-01-16T08:08:44.801Z,94387.00
2024-01-16T08:09:44.791Z,94386.00
2024-01-16T08:10:44.817Z,94384.00
2024-01-16T08:11:44.788Z,94386.00
2024-01-16T08:12:44.777Z,94383.00
2024-01-16T08:13:44.784Z,94382.00
2024-01-16T08:14:45.288Z,94382.00
2024-01-16T08:15:44.873Z,94380.00
2024-01-16T08:16:44.880Z,94379.00
2024-01-16T08:17:45.070Z,94377.00
2024-01-16T08:18:45.187Z,94376.00
2024-01-16T08:19:45.025Z,94374.00
2024-01-16T08:20:45.107Z,94371.00
2024-01-16T08:21:45.099Z,94369.00
2024-01-16T08:22:45.114Z,94368.00
2024-01-16T08:23:45.164Z,94368.00
2024-01-16T08:24:45.225Z,94366.00
2024-01-16T08:25:45.218Z,94365.00
2024-01-16T08:26:45.260Z,94366.00
2024-01-16T08:27:45.284Z,94360.00
2024-01-16T08:28:45.302Z,94362.00
2024-01-16T08:29:45.301Z,94362.00
2024-01-16T08:30:45.413Z,94359.00
2024-01-16T08:31:45.383Z,94357.00
2024-01-16T08:32:45.534Z,94357.00
2024-01-16T08:33:47.288Z,94357.00
2024-01-16T08:34:47.976Z,94358.00
2024-01-16T08:35:45.475Z,94354.00
2024-01-16T08:36:45.469Z,94357.00
2024-01-16T08:37:45.448Z,94356.00
2024-01-16T08:38:45.573Z,94353.00
2024-01-16T08:39:45.763Z,94348.00
2024-01-16T08:40:45.541Z,94345.00
2024-01-16T08:41:45.523Z,94346.00
2024-01-16T08:42:45.498Z,94347.00
2024-01-16T08:43:45.481Z,94345.00
2024-01-16T08:44:45.834Z,94345.00
2024-01-16T08:45:45.470Z,94340.00
2024-01-16T08:46:45.497Z,94340.00
2024-01-16T08:47:45.518Z,94342.00
2024-01-16T08:48:45.660Z,94346.00
2024-01-16T08:49:45.534Z,94348.00
2024-01-16T08:50:45.561Z,94348.00
2024-01-16T08:51:46.283Z,94349.00
2024-01-16T08:52:45.631Z,94350.00
2024-01-16T08:53:45.502Z,94349.00
2024-01-16T08:54:45.479Z,94350.00
2024-01-16T08:55:45.465Z,94352.00
2024-01-16T08:56:45.553Z,94355.00
2024-01-16T08:57:45.501Z,94356.00
2024-01-16T08:58:45.518Z,94357.00
2024-01-16T08:59:45.933Z,94358.00
2024-01-16T09:00:45.532Z,94357.00
2024-01-16T09:01:45.471Z,94355.00
2024-01-16T09:02:46.295Z,94356.00
2024-01-16T09:03:45.487Z,94356.00
2024-01-16T09:04:45.880Z,94354.00
2024-01-16T09:05:45.633Z,94351.00
2024-01-16T09:06:45.741Z,94349.00
2024-01-16T09:07:45.542Z,94350.00
2024-01-16T09:08:45.649Z,94352.00
2024-01-16T09:09:45.551Z,94347.00
2024-01-16T09:10:45.481Z,94348.00
2024-01-16T09:11:45.552Z,94345.00
2024-01-16T09:12:45.507Z,94345.00
2024-01-16T09:13:45.508Z,94342.00
2024-01-16T09:14:45.795Z,94339.00
2024-01-16T09:15:45.538Z,94338.00
2024-01-16T09:16:45.548Z,94336.00
2024-01-16T09:17:45.677Z,94335.00
2024-01-16T09:18:45.673Z,94333.00
2024-01-16T09:19:45.796Z,94331.00
2024-01-16T09:20:45.570Z,94332.00
2024-01-16T09:21:45.538Z,94327.00
2024-01-16T09:22:45.589Z,94328.00
2024-01-16T09:23:45.553Z,94329.00
2024-01-16T09:24:45.779Z,94332.00
2024-01-16T09:25:47.709Z,94331.00
2024-01-16T09:26:45.610Z,94331.00
2024-01-16T09:27:46.264Z,94330.00
2024-01-16T09:28:45.562Z,94329.00
2024-01-16T09:29:45.639Z,94328.00
2024-01-16T09:30:45.541Z,94327.00
2024-01-16T09:31:45.534Z,94328.00
2024-01-16T09:32:45.591Z,94328.00
2024-01-16T09:33:45.617Z,94331.00
2024-01-16T09:34:45.851Z,94329.00
2024-01-16T09:35:45.583Z,94331.00
2024-01-16T09:36:45.568Z,94328.00
2024-01-16T09:37:45.568Z,94329.00
2024-01-16T09:38:45.574Z,94329.00
2024-01-16T09:39:45.773Z,94328.00
2024-01-16T09:40:45.576Z,94324.00
2024-01-16T09:41:45.591Z,94329.00
2024-01-16T09:42:45.530Z,94338.00
2024-01-16T09:43:45.569Z,94337.00
2024-01-16T09:44:45.798Z,94329.00
2024-01-16T09:45:45.620Z,94331.00
2024-01-16T09:46:45.595Z,94329.00
2024-01-16T09:47:45.732Z,94324.00
2024-01-16T09:48:45.747Z,94327.00
2024-01-16T09:49:45.636Z,94326.00
2024-01-16T09:50:45.603Z,94318.00
2024-01-16T09:51:45.584Z,94314.00
2024-01-16T09:52:45.562Z,94317.00
2024-01-16T09:53:45.596Z,94319.00
2024-01-16T09:54:45.773Z,94314.00
2024-01-16T09:55:45.549Z,94308.00
2024-01-16T09:56:45.595Z,94312.00
2024-01-16T09:57:45.607Z,94302.00
2024-01-16T09:58:45.593Z,94302.00
2024-01-16T09:59:45.816Z,94301.00
2024-01-16T10:00:45.656Z,94296.00
2024-01-16T10:01:45.576Z,94294.00
2024-01-16T10:02:45.623Z,94294.00
2024-01-16T10:03:45.577Z,94294.00
2024-01-16T10:04:45.790Z,94290.00
2024-01-16T10:05:45.661Z,94290.00
2024-01-16T10:06:45.689Z,94288.00
2024-01-16T10:07:45.568Z,94289.00
2024-01-16T10:08:45.605Z,94290.00
2024-01-16T10:09:45.769Z,94290.00
2024-01-16T10:10:49.074Z,94287.00
2024-01-16T10:11:45.788Z,94282.00
2024-01-16T10:12:45.664Z,94283.00
2024-01-16T10:13:45.707Z,94282.00
2024-01-16T10:14:45.786Z,94284.00
2024-01-16T10:15:45.815Z,94283.00
2024-01-16T10:16:45.676Z,94282.00
2024-01-16T10:17:45.764Z,94280.00
2024-01-16T10:18:45.796Z,94279.00
2024-01-16T10:19:48.935Z,94275.00
2024-01-16T10:20:45.698Z,94273.00
2024-01-16T10:21:45.726Z,94272.00
2024-01-16T10:22:45.694Z,94271.00
2024-01-16T10:23:45.710Z,94270.00
2024-01-16T10:24:45.796Z,94279.00
2024-01-16T10:25:45.709Z,94264.00
2024-01-16T10:26:45.772Z,94263.00
2024-01-16T10:27:45.696Z,94263.00
2024-01-16T10:28:45.699Z,94263.00
2024-01-16T10:29:50.540Z,94265.00
2024-01-16T10:30:46.859Z,94261.00
2024-01-16T10:31:45.741Z,94259.00
2024-01-16T10:32:45.856Z,94255.00
2024-01-16T10:33:45.828Z,94256.00
2024-01-16T10:34:45.885Z,94255.00
2024-01-16T10:35:45.730Z,94255.00
2024-01-16T10:36:45.768Z,94257.00
2024-01-16T10:37:45.761Z,94254.00
2024-01-16T10:38:45.778Z,94250.00
2024-01-16T10:39:46.326Z,94250.00
2024-01-16T10:40:45.803Z,94252.00
2024-01-16T10:41:45.918Z,94254.00
2024-01-16T10:42:45.869Z,94253.00
2024-01-16T10:43:46.014Z,94249.00
2024-01-16T10:44:46.436Z,94249.00
2024-01-16T10:45:46.062Z,94253.00
2024-01-16T10:46:46.151Z,94257.00
2024-01-16T10:47:46.195Z,94250.00
2024-01-16T10:48:46.596Z,94248.00
2024-01-16T10:49:46.703Z,94247.00
2024-01-16T10:50:46.454Z,94244.00
2024-01-16T10:51:46.435Z,94242.00
2024-01-16T10:52:46.515Z,94246.00
2024-01-16T10:53:46.633Z,94244.00
2024-01-16T10:54:46.843Z,94241.00
2024-01-16T10:55:46.722Z,94239.00
2024-01-16T10:56:46.768Z,94237.00
2024-01-16T10:57:46.851Z,94235.00
2024-01-16T10:58:46.863Z,94233.00
2024-01-16T10:59:47.396Z,94232.00
2024-01-16T11:00:47.008Z,94234.00
2024-01-16T11:01:47.081Z,94231.00
2024-01-16T11:02:47.141Z,94228.00
2024-01-16T11:03:47.249Z,94227.00
2024-01-16T11:04:47.327Z,94226.00
2024-01-16T11:05:47.372Z,94224.00
2024-01-16T11:06:47.357Z,94220.00
2024-01-16T11:07:47.320Z,94220.00
2024-01-16T11:08:48.464Z,94220.00
2024-01-16T11:09:47.298Z,94218.00
2024-01-16T11:10:47.378Z,94216.00
2024-01-16T11:11:48.404Z,94213.00
2024-01-16T11:12:47.296Z,94212.00
2024-01-16T11:13:47.753Z,94212.00
2024-01-16T11:14:47.347Z,94212.00
2024-01-16T11:15:47.356Z,94209.00
2024-01-16T11:16:47.320Z,94205.00
2024-01-16T11:17:47.430Z,94204.00
2024-01-16T11:18:47.498Z,94202.00
2024-01-16T11:20:01.670Z,94203.00
2024-01-16T11:21:02.431Z,94201.00
2024-01-16T11:21:48.502Z,94200.00
2024-01-16T11:22:47.410Z,94197.00
2024-01-16T11:23:48.217Z,94193.00
2024-01-16T11:24:47.813Z,94193.00
2024-01-16T11:25:47.416Z,94193.00
2024-01-16T11:26:47.447Z,94194.00
2024-01-16T11:27:47.425Z,94190.00
2024-01-16T11:28:47.429Z,94187.00
2024-01-16T11:29:47.915Z,94187.00
2024-01-16T11:30:47.484Z,94186.00
2024-01-16T11:31:47.462Z,94183.00
2024-01-16T11:32:47.489Z,94182.00
2024-01-16T11:33:47.642Z,94178.00
2024-01-16T11:34:47.490Z,94177.00
2024-01-16T11:35:47.450Z,94173.00
2024-01-16T11:36:47.417Z,94172.00
2024-01-16T11:37:47.440Z,94168.00
2024-01-16T11:38:47.485Z,94163.00
2024-01-16T11:39:47.455Z,94162.00
2024-01-16T11:40:47.439Z,94160.00
2024-01-16T11:41:47.437Z,94156.00
2024-01-16T11:42:47.440Z,94154.00
2024-01-16T11:43:47.414Z,94152.00
2024-01-16T11:44:47.553Z,94149.00